sensor_id;sensor_type;location;lat;lon;timestamp;temperature;humidity
41939;DHT22;23057;48.554;14.454;2023-07-31T00:01:54;14.50;99.90
41939;DHT22;23057;48.554;14.454;2023-07-31T00:04:24;14.50;99.90
41939;DHT22;23057;48.554;14.454;2023-07-31T00:06:55;14.40;99.90
41939;DHT22;23057;48.554;14.454;2023-07-31T00:09:26;14.40;99.90
41939;DHT22;23057;48.554;14.454;2023-07-31T00:11:57;14.40;99.90
41939;DHT22;23057;48.554;14.454;2023-07-31T00:14:27;14.40;99.90
41939;DHT22;23057;48.554;14.454;2023-07-31T00:16:58;14.40;99.90
41939;DHT22;23057;48.554;14.454;2023-07-31T00:19:29;14.40;99.90
41939;DHT22;23057;48.554;14.454;2023-07-31T00:22:00;14.40;99.90
41939;DHT22;23057;48.554;14.454;2023-07-31T00:24:30;14.30;99.90
41939;DHT22;23057;48.554;14.454;2023-07-31T00:27:01;14.30;99.90
41939;DHT22;23057;48.554;14.454;2023-07-31T00:29:32;14.20;99.90
41939;DHT22;23057;48.554;14.454;2023-07-31T00:32:03;14.20;99.90
41939;DHT22;23057;48.554;14.454;2023-07-31T00:34:35;14.10;99.90
41939;DHT22;23057;48.554;14.454;2023-07-31T00:37:06;14.10;99.90
41939;DHT22;23057;48.554;14.454;2023-07-31T00:39:37;14.10;99.90
41939;DHT22;23057;48.554;14.454;2023-07-31T00:42:08;14.00;99.90
41939;DHT22;23057;48.554;14.454;2023-07-31T00:44:38;14.10;99.90
41939;DHT22;23057;48.554;14.454;2023-07-31T00:47:09;14.00;99.90
41939;DHT22;23057;48.554;14.454;2023-07-31T00:49:40;13.90;99.90
41939;DHT22;23057;48.554;14.454;2023-07-31T00:52:11;13.80;99.90
41939;DHT22;23057;48.554;14.454;2023-07-31T00:54:43;13.80;99.90
41939;DHT22;23057;48.554;14.454;2023-07-31T00:57:14;13.80;99.90
41939;DHT22;23057;48.554;14.454;2023-07-31T00:59:45;13.70;99.90
41939;DHT22;23057;48.554;14.454;2023-07-31T01:02:17;13.60;99.90
41939;DHT22;23057;48.554;14.454;2023-07-31T01:04:48;13.50;99.90
41939;DHT22;23057;48.554;14.454;2023-07-31T01:07:45;13.40;99.90
41939;DHT22;23057;48.554;14.454;2023-07-31T01:10:28;13.40;99.90
41939;DHT22;23057;48.554;14.454;2023-07-31T01:13:07;13.30;99.90
41939;DHT22;23057;48.554;14.454;2023-07-31T01:15:38;13.30;99.90
41939;DHT22;23057;48.554;14.454;2023-07-31T01:18:09;13.30;99.90
41939;DHT22;23057;48.554;14.454;2023-07-31T01:20:42;13.30;99.90
41939;DHT22;23057;48.554;14.454;2023-07-31T01:23:50;13.10;99.90
41939;DHT22;23057;48.554;14.454;2023-07-31T01:26:38;13.10;99.90
41939;DHT22;23057;48.554;14.454;2023-07-31T01:29:20;13.10;99.90
41939;DHT22;23057;48.554;14.454;2023-07-31T01:32:02;13.10;99.90
41939;DHT22;23057;48.554;14.454;2023-07-31T01:34:35;13.00;99.90
41939;DHT22;23057;48.554;14.454;2023-07-31T01:37:07;13.00;99.90
41939;DHT22;23057;48.554;14.454;2023-07-31T01:39:38;13.00;99.90
41939;DHT22;23057;48.554;14.454;2023-07-31T01:42:09;13.00;99.90
41939;DHT22;23057;48.554;14.454;2023-07-31T01:44:40;13.00;99.90
41939;DHT22;23057;48.554;14.454;2023-07-31T01:47:11;12.90;99.90
41939;DHT22;23057;48.554;14.454;2023-07-31T01:49:41;12.80;99.90
41939;DHT22;23057;48.554;14.454;2023-07-31T01:52:12;12.70;99.90
41939;DHT22;23057;48.554;14.454;2023-07-31T01:54:43;12.60;99.90
41939;DHT22;23057;48.554;14.454;2023-07-31T01:57:14;12.60;99.90
41939;DHT22;23057;48.554;14.454;2023-07-31T01:59:44;12.60;99.90
41939;DHT22;23057;48.554;14.454;2023-07-31T02:02:16;12.60;99.90
41939;DHT22;23057;48.554;14.454;2023-07-31T02:04:47;12.60;99.90
41939;DHT22;23057;48.554;14.454;2023-07-31T02:07:17;12.60;99.90
41939;DHT22;23057;48.554;14.454;2023-07-31T02:09:48;12.60;99.90
41939;DHT22;23057;48.554;14.454;2023-07-31T02:12:19;12.60;99.90
41939;DHT22;23057;48.554;14.454;2023-07-31T02:14:50;12.50;99.90
41939;DHT22;23057;48.554;14.454;2023-07-31T02:17:21;12.40;99.90
41939;DHT22;23057;48.554;14.454;2023-07-31T02:19:52;12.30;99.90
41939;DHT22;23057;48.554;14.454;2023-07-31T02:22:23;12.30;99.90
41939;DHT22;23057;48.554;14.454;2023-07-31T02:24:54;12.30;99.90
41939;DHT22;23057;48.554;14.454;2023-07-31T02:27:25;12.30;99.90
41939;DHT22;23057;48.554;14.454;2023-07-31T02:29:57;12.30;99.90
41939;DHT22;23057;48.554;14.454;2023-07-31T02:32:29;12.30;99.90
41939;DHT22;23057;48.554;14.454;2023-07-31T02:35:00;12.30;99.90
41939;DHT22;23057;48.554;14.454;2023-07-31T02:37:31;12.20;99.90
41939;DHT22;23057;48.554;14.454;2023-07-31T02:40:02;12.10;99.90
41939;DHT22;23057;48.554;14.454;2023-07-31T02:42:33;12.10;99.90
41939;DHT22;23057;48.554;14.454;2023-07-31T02:45:04;12.10;99.90
41939;DHT22;23057;48.554;14.454;2023-07-31T02:47:36;11.90;99.90
41939;DHT22;23057;48.554;14.454;2023-07-31T02:50:07;11.80;99.90
41939;DHT22;23057;48.554;14.454;2023-07-31T02:52:38;11.70;99.90
41939;DHT22;23057;48.554;14.454;2023-07-31T02:55:09;11.40;99.90
41939;DHT22;23057;48.554;14.454;2023-07-31T02:57:39;11.30;99.90
41939;DHT22;23057;48.554;14.454;2023-07-31T03:00:10;11.20;99.90
41939;DHT22;23057;48.554;14.454;2023-07-31T03:02:41;11.30;99.90
41939;DHT22;23057;48.554;14.454;2023-07-31T03:05:12;11.30;99.90
41939;DHT22;23057;48.554;14.454;2023-07-31T03:07:43;11.30;99.90
41939;DHT22;23057;48.554;14.454;2023-07-31T03:10:14;11.40;99.90
41939;DHT22;23057;48.554;14.454;2023-07-31T03:12:47;11.50;99.90
41939;DHT22;23057;48.554;14.454;2023-07-31T03:15:18;11.40;99.90
41939;DHT22;23057;48.554;14.454;2023-07-31T03:17:49;11.40;99.90
41939;DHT22;23057;48.554;14.454;2023-07-31T03:20:20;11.40;99.90
41939;DHT22;23057;48.554;14.454;2023-07-31T03:22:50;11.20;99.90
41939;DHT22;23057;48.554;14.454;2023-07-31T03:25:21;11.10;99.90
41939;DHT22;23057;48.554;14.454;2023-07-31T03:27:52;11.10;99.90
41939;DHT22;23057;48.554;14.454;2023-07-31T03:30:23;11.00;99.90
41939;DHT22;23057;48.554;14.454;2023-07-31T03:32:53;10.80;99.90
41939;DHT22;23057;48.554;14.454;2023-07-31T03:35:24;10.60;99.90
41939;DHT22;23057;48.554;14.454;2023-07-31T03:37:55;10.60;99.90
41939;DHT22;23057;48.554;14.454;2023-07-31T03:40:26;10.50;99.90
41939;DHT22;23057;48.554;14.454;2023-07-31T03:42:57;10.50;99.90
41939;DHT22;23057;48.554;14.454;2023-07-31T03:45:27;10.40;99.90
41939;DHT22;23057;48.554;14.454;2023-07-31T03:47:58;10.50;99.90
41939;DHT22;23057;48.554;14.454;2023-07-31T03:50:29;10.50;99.90
41939;DHT22;23057;48.554;14.454;2023-07-31T03:53:01;10.50;99.90
41939;DHT22;23057;48.554;14.454;2023-07-31T03:55:31;10.60;99.90
41939;DHT22;23057;48.554;14.454;2023-07-31T03:58:02;10.70;99.90
41939;DHT22;23057;48.554;14.454;2023-07-31T04:00:33;10.70;99.90
41939;DHT22;23057;48.554;14.454;2023-07-31T04:03:04;10.80;99.90
41939;DHT22;23057;48.554;14.454;2023-07-31T04:05:38;10.80;99.90
41939;DHT22;23057;48.554;14.454;2023-07-31T04:08:10;10.60;99.90
41939;DHT22;23057;48.554;14.454;2023-07-31T04:10:41;10.50;99.90
41939;DHT22;23057;48.554;14.454;2023-07-31T04:13:11;10.60;99.90
41939;DHT22;23057;48.554;14.454;2023-07-31T04:15:42;10.70;99.90
41939;DHT22;23057;48.554;14.454;2023-07-31T04:18:17;10.70;99.90
41939;DHT22;23057;48.554;14.454;2023-07-31T04:20:48;10.70;99.90
41939;DHT22;23057;48.554;14.454;2023-07-31T04:23:19;10.60;99.90
41939;DHT22;23057;48.554;14.454;2023-07-31T04:25:50;10.90;99.90
41939;DHT22;23057;48.554;14.454;2023-07-31T04:28:21;11.20;99.90
41939;DHT22;23057;48.554;14.454;2023-07-31T04:30:52;11.50;99.90
41939;DHT22;23057;48.554;14.454;2023-07-31T04:33:23;11.80;99.90
41939;DHT22;23057;48.554;14.454;2023-07-31T04:35:54;12.40;99.90
41939;DHT22;23057;48.554;14.454;2023-07-31T04:38:25;14.00;99.90
41939;DHT22;23057;48.554;14.454;2023-07-31T04:40:56;14.30;99.90
41939;DHT22;23057;48.554;14.454;2023-07-31T04:43:29;14.00;99.90
41939;DHT22;23057;48.554;14.454;2023-07-31T04:46:00;13.60;99.90
41939;DHT22;23057;48.554;14.454;2023-07-31T04:48:31;13.30;99.90
41939;DHT22;23057;48.554;14.454;2023-07-31T04:51:02;13.30;99.90
41939;DHT22;23057;48.554;14.454;2023-07-31T04:53:32;13.20;99.90
41939;DHT22;23057;48.554;14.454;2023-07-31T04:56:03;13.10;99.90
41939;DHT22;23057;48.554;14.454;2023-07-31T04:58:34;13.10;99.90
41939;DHT22;23057;48.554;14.454;2023-07-31T05:01:05;13.20;99.90
41939;DHT22;23057;48.554;14.454;2023-07-31T05:03:36;13.30;99.90
41939;DHT22;23057;48.554;14.454;2023-07-31T05:06:06;13.40;99.90
41939;DHT22;23057;48.554;14.454;2023-07-31T05:08:37;13.60;99.90
41939;DHT22;23057;48.554;14.454;2023-07-31T05:11:08;13.80;99.90
41939;DHT22;23057;48.554;14.454;2023-07-31T05:13:39;13.90;99.90
41939;DHT22;23057;48.554;14.454;2023-07-31T05:16:09;14.50;99.90
41939;DHT22;23057;48.554;14.454;2023-07-31T05:18:40;16.40;99.90
41939;DHT22;23057;48.554;14.454;2023-07-31T05:21:11;18.30;6.90
41939;DHT22;23057;48.554;14.454;2023-07-31T05:23:42;18.80;99.90
41939;DHT22;23057;48.554;14.454;2023-07-31T05:26:13;18.30;1.70
41939;DHT22;23057;48.554;14.454;2023-07-31T05:28:44;18.50;4.80
41939;DHT22;23057;48.554;14.454;2023-07-31T05:31:14;19.10;1.00
41939;DHT22;23057;48.554;14.454;2023-07-31T05:33:45;19.00;1.00
41939;DHT22;23057;48.554;14.454;2023-07-31T05:36:17;20.80;1.00
41939;DHT22;23057;48.554;14.454;2023-07-31T05:38:48;22.20;99.90
41939;DHT22;23057;48.554;14.454;2023-07-31T05:41:19;21.90;99.90
41939;DHT22;23057;48.554;14.454;2023-07-31T05:43:50;22.30;99.90
41939;DHT22;23057;48.554;14.454;2023-07-31T05:46:21;23.40;99.90
41939;DHT22;23057;48.554;14.454;2023-07-31T05:48:52;24.40;99.90
41939;DHT22;23057;48.554;14.454;2023-07-31T05:51:23;24.10;99.90
41939;DHT22;23057;48.554;14.454;2023-07-31T05:53:54;24.10;99.90
41939;DHT22;23057;48.554;14.454;2023-07-31T05:56:25;24.90;99.90
41939;DHT22;23057;48.554;14.454;2023-07-31T05:58:57;24.20;99.90
41939;DHT22;23057;48.554;14.454;2023-07-31T06:01:28;24.90;99.90
41939;DHT22;23057;48.554;14.454;2023-07-31T06:03:59;22.60;99.90
41939;DHT22;23057;48.554;14.454;2023-07-31T06:06:30;21.50;99.90
41939;DHT22;23057;48.554;14.454;2023-07-31T06:09:00;20.30;99.90
41939;DHT22;23057;48.554;14.454;2023-07-31T06:11:31;19.70;99.90
41939;DHT22;23057;48.554;14.454;2023-07-31T06:14:02;19.50;99.90
41939;DHT22;23057;48.554;14.454;2023-07-31T06:16:33;20.10;99.90
41939;DHT22;23057;48.554;14.454;2023-07-31T06:19:04;22.60;99.90
41939;DHT22;23057;48.554;14.454;2023-07-31T06:21:35;23.00;99.90
41939;DHT22;23057;48.554;14.454;2023-07-31T06:24:08;23.40;99.90
41939;DHT22;23057;48.554;14.454;2023-07-31T06:26:39;24.40;99.90
41939;DHT22;23057;48.554;14.454;2023-07-31T06:29:10;24.00;99.90
41939;DHT22;23057;48.554;14.454;2023-07-31T06:31:41;23.70;99.90
41939;DHT22;23057;48.554;14.454;2023-07-31T06:34:11;23.80;99.90
41939;DHT22;23057;48.554;14.454;2023-07-31T06:36:42;25.50;99.90
41939;DHT22;23057;48.554;14.454;2023-07-31T06:39:13;25.90;99.90
41939;DHT22;23057;48.554;14.454;2023-07-31T06:41:44;24.40;99.90
41939;DHT22;23057;48.554;14.454;2023-07-31T06:44:15;23.90;99.90
41939;DHT22;23057;48.554;14.454;2023-07-31T06:46:46;23.60;99.90
41939;DHT22;23057;48.554;14.454;2023-07-31T06:49:16;24.30;99.90
41939;DHT22;23057;48.554;14.454;2023-07-31T06:51:47;22.20;99.90
41939;DHT22;23057;48.554;14.454;2023-07-31T06:54:18;23.00;99.90
41939;DHT22;23057;48.554;14.454;2023-07-31T06:56:49;23.30;99.90
41939;DHT22;23057;48.554;14.454;2023-07-31T06:59:20;21.50;99.90
41939;DHT22;23057;48.554;14.454;2023-07-31T07:01:50;20.40;99.90
41939;DHT22;23057;48.554;14.454;2023-07-31T07:04:21;21.40;99.90
41939;DHT22;23057;48.554;14.454;2023-07-31T07:06:52;20.80;99.90
41939;DHT22;23057;48.554;14.454;2023-07-31T07:09:23;20.40;99.90
41939;DHT22;23057;48.554;14.454;2023-07-31T07:11:54;20.40;99.90
41939;DHT22;23057;48.554;14.454;2023-07-31T07:14:24;21.00;99.90
41939;DHT22;23057;48.554;14.454;2023-07-31T07:16:55;20.70;99.90
41939;DHT22;23057;48.554;14.454;2023-07-31T07:19:26;20.60;99.90
41939;DHT22;23057;48.554;14.454;2023-07-31T07:21:57;20.90;99.90
41939;DHT22;23057;48.554;14.454;2023-07-31T07:24:28;21.00;99.90
41939;DHT22;23057;48.554;14.454;2023-07-31T07:26:59;21.00;99.90
41939;DHT22;23057;48.554;14.454;2023-07-31T07:29:30;21.40;99.90
41939;DHT22;23057;48.554;14.454;2023-07-31T07:32:01;21.30;99.90
41939;DHT22;23057;48.554;14.454;2023-07-31T07:34:32;21.70;99.90
41939;DHT22;23057;48.554;14.454;2023-07-31T07:37:03;21.30;99.90
41939;DHT22;23057;48.554;14.454;2023-07-31T07:39:34;21.00;99.90
41939;DHT22;23057;48.554;14.454;2023-07-31T07:42:05;21.10;99.90
41939;DHT22;23057;48.554;14.454;2023-07-31T07:44:36;20.90;99.90
41939;DHT22;23057;48.554;14.454;2023-07-31T07:47:06;20.90;99.90
41939;DHT22;23057;48.554;14.454;2023-07-31T07:49:37;21.50;99.90
41939;DHT22;23057;48.554;14.454;2023-07-31T07:52:08;22.10;99.90
41939;DHT22;23057;48.554;14.454;2023-07-31T07:54:39;22.60;99.90
41939;DHT22;23057;48.554;14.454;2023-07-31T07:57:10;22.10;99.90
41939;DHT22;23057;48.554;14.454;2023-07-31T07:59:41;21.80;99.90
41939;DHT22;23057;48.554;14.454;2023-07-31T08:02:12;22.20;99.90
41939;DHT22;23057;48.554;14.454;2023-07-31T08:04:43;22.20;99.90
41939;DHT22;23057;48.554;14.454;2023-07-31T08:07:14;21.40;99.90
41939;DHT22;23057;48.554;14.454;2023-07-31T08:09:45;21.60;99.90
41939;DHT22;23057;48.554;14.454;2023-07-31T08:12:15;21.40;99.90
41939;DHT22;23057;48.554;14.454;2023-07-31T08:14:46;21.10;99.90
41939;DHT22;23057;48.554;14.454;2023-07-31T08:17:17;21.10;99.90
41939;DHT22;23057;48.554;14.454;2023-07-31T08:19:48;21.20;99.90
41939;DHT22;23057;48.554;14.454;2023-07-31T08:22:19;21.10;99.90
41939;DHT22;23057;48.554;14.454;2023-07-31T08:24:49;21.20;99.90
41939;DHT22;23057;48.554;14.454;2023-07-31T08:27:20;21.80;99.90
41939;DHT22;23057;48.554;14.454;2023-07-31T08:29:52;21.50;99.90
41939;DHT22;23057;48.554;14.454;2023-07-31T08:32:23;21.00;99.90
41939;DHT22;23057;48.554;14.454;2023-07-31T08:34:54;21.20;99.90
41939;DHT22;23057;48.554;14.454;2023-07-31T08:37:25;21.80;99.90
41939;DHT22;23057;48.554;14.454;2023-07-31T08:39:55;21.80;99.90
41939;DHT22;23057;48.554;14.454;2023-07-31T08:42:26;22.30;99.90
41939;DHT22;23057;48.554;14.454;2023-07-31T08:44:58;22.50;99.90
41939;DHT22;23057;48.554;14.454;2023-07-31T08:47:30;22.80;99.90
41939;DHT22;23057;48.554;14.454;2023-07-31T08:50:02;22.90;99.90
41939;DHT22;23057;48.554;14.454;2023-07-31T08:52:34;22.70;99.90
41939;DHT22;23057;48.554;14.454;2023-07-31T08:55:06;22.20;99.90
41939;DHT22;23057;48.554;14.454;2023-07-31T08:57:38;21.60;99.90
41939;DHT22;23057;48.554;14.454;2023-07-31T09:00:12;21.00;99.90
41939;DHT22;23057;48.554;14.454;2023-07-31T09:02:56;20.70;99.90
41939;DHT22;23057;48.554;14.454;2023-07-31T09:05:32;20.70;99.90
41939;DHT22;23057;48.554;14.454;2023-07-31T09:08:04;20.40;99.90
41939;DHT22;23057;48.554;14.454;2023-07-31T09:10:43;20.30;99.90
41939;DHT22;23057;48.554;14.454;2023-07-31T09:13:17;20.40;99.90
41939;DHT22;23057;48.554;14.454;2023-07-31T09:15:48;20.10;99.90
41939;DHT22;23057;48.554;14.454;2023-07-31T09:18:19;20.00;99.90
41939;DHT22;23057;48.554;14.454;2023-07-31T09:21:05;20.20;99.90
41939;DHT22;23057;48.554;14.454;2023-07-31T09:23:46;20.20;99.90
41939;DHT22;23057;48.554;14.454;2023-07-31T09:26:36;20.30;99.90
41939;DHT22;23057;48.554;14.454;2023-07-31T09:29:18;20.40;99.90
41939;DHT22;23057;48.554;14.454;2023-07-31T09:31:50;20.70;99.90
41939;DHT22;23057;48.554;14.454;2023-07-31T09:34:38;21.10;99.90
41939;DHT22;23057;48.554;14.454;2023-07-31T09:37:11;21.30;99.90
41939;DHT22;23057;48.554;14.454;2023-07-31T09:39:46;20.90;99.90
41939;DHT22;23057;48.554;14.454;2023-07-31T09:42:25;20.60;99.90
41939;DHT22;23057;48.554;14.454;2023-07-31T09:45:07;20.80;99.90
41939;DHT22;23057;48.554;14.454;2023-07-31T09:47:39;21.10;99.90
41939;DHT22;23057;48.554;14.454;2023-07-31T09:50:21;21.50;99.90
41939;DHT22;23057;48.554;14.454;2023-07-31T09:52:53;21.90;99.90
41939;DHT22;23057;48.554;14.454;2023-07-31T09:55:24;21.30;99.90
41939;DHT22;23057;48.554;14.454;2023-07-31T09:57:57;21.70;99.90
41939;DHT22;23057;48.554;14.454;2023-07-31T10:00:29;21.70;99.90
41939;DHT22;23057;48.554;14.454;2023-07-31T10:03:06;21.60;99.90
41939;DHT22;23057;48.554;14.454;2023-07-31T10:05:42;22.20;99.90
41939;DHT22;23057;48.554;14.454;2023-07-31T10:08:23;21.70;99.90
41939;DHT22;23057;48.554;14.454;2023-07-31T10:11:00;22.20;99.90
41939;DHT22;23057;48.554;14.454;2023-07-31T10:13:34;22.90;99.90
41939;DHT22;23057;48.554;14.454;2023-07-31T10:16:06;22.60;99.90
41939;DHT22;23057;48.554;14.454;2023-07-31T10:18:38;22.50;99.90
41939;DHT22;23057;48.554;14.454;2023-07-31T10:21:11;22.50;99.90
41939;DHT22;23057;48.554;14.454;2023-07-31T10:23:43;22.70;99.90
41939;DHT22;23057;48.554;14.454;2023-07-31T10:26:17;22.50;99.90
41939;DHT22;23057;48.554;14.454;2023-07-31T10:28:51;22.60;99.90
41939;DHT22;23057;48.554;14.454;2023-07-31T10:31:24;23.20;99.90
41939;DHT22;23057;48.554;14.454;2023-07-31T10:33:58;23.50;99.90
41939;DHT22;23057;48.554;14.454;2023-07-31T10:36:31;24.00;99.90
41939;DHT22;23057;48.554;14.454;2023-07-31T10:39:04;24.00;99.90
41939;DHT22;23057;48.554;14.454;2023-07-31T10:41:58;23.60;99.90
41939;DHT22;23057;48.554;14.454;2023-07-31T10:44:29;23.60;99.90
41939;DHT22;23057;48.554;14.454;2023-07-31T10:47:00;23.50;99.90
41939;DHT22;23057;48.554;14.454;2023-07-31T10:49:32;23.60;99.90
41939;DHT22;23057;48.554;14.454;2023-07-31T10:52:03;23.00;99.90
41939;DHT22;23057;48.554;14.454;2023-07-31T10:54:34;22.50;99.90
41939;DHT22;23057;48.554;14.454;2023-07-31T10:57:21;22.60;99.90
41939;DHT22;23057;48.554;14.454;2023-07-31T11:00:31;22.70;99.90
41939;DHT22;23057;48.554;14.454;2023-07-31T11:03:07;23.00;99.90
41939;DHT22;23057;48.554;14.454;2023-07-31T11:08:29;22.60;99.90
41939;DHT22;23057;48.554;14.454;2023-07-31T11:11:06;22.80;99.90
41939;DHT22;23057;48.554;14.454;2023-07-31T11:13:40;23.10;99.90
41939;DHT22;23057;48.554;14.454;2023-07-31T11:16:13;22.70;99.90
41939;DHT22;23057;48.554;14.454;2023-07-31T11:18:46;22.20;99.90
41939;DHT22;23057;48.554;14.454;2023-07-31T11:21:20;22.10;99.90
41939;DHT22;23057;48.554;14.454;2023-07-31T11:23:56;22.10;99.90
41939;DHT22;23057;48.554;14.454;2023-07-31T11:26:28;21.90;99.90
41939;DHT22;23057;48.554;14.454;2023-07-31T11:29:01;22.20;99.90
41939;DHT22;23057;48.554;14.454;2023-07-31T11:31:31;22.50;99.90
41939;DHT22;23057;48.554;14.454;2023-07-31T11:34:09;22.50;99.90
41939;DHT22;23057;48.554;14.454;2023-07-31T11:36:40;22.10;99.90
41939;DHT22;23057;48.554;14.454;2023-07-31T11:39:11;22.30;99.90
41939;DHT22;23057;48.554;14.454;2023-07-31T11:41:42;22.30;99.90
41939;DHT22;23057;48.554;14.454;2023-07-31T11:44:13;22.20;99.90
41939;DHT22;23057;48.554;14.454;2023-07-31T11:46:43;22.10;99.90
41939;DHT22;23057;48.554;14.454;2023-07-31T11:49:15;22.00;99.90
41939;DHT22;23057;48.554;14.454;2023-07-31T11:51:46;21.70;99.90
41939;DHT22;23057;48.554;14.454;2023-07-31T11:54:17;21.80;99.90
41939;DHT22;23057;48.554;14.454;2023-07-31T11:56:49;21.70;99.90
41939;DHT22;23057;48.554;14.454;2023-07-31T11:59:20;21.90;99.90
41939;DHT22;23057;48.554;14.454;2023-07-31T12:01:52;21.70;99.90
41939;DHT22;23057;48.554;14.454;2023-07-31T12:04:24;21.50;99.90
41939;DHT22;23057;48.554;14.454;2023-07-31T12:06:56;21.60;99.90
41939;DHT22;23057;48.554;14.454;2023-07-31T12:09:27;21.50;99.90
41939;DHT22;23057;48.554;14.454;2023-07-31T12:11:58;21.40;99.90
41939;DHT22;23057;48.554;14.454;2023-07-31T12:14:30;21.40;99.90
41939;DHT22;23057;48.554;14.454;2023-07-31T12:17:04;21.50;99.90
41939;DHT22;23057;48.554;14.454;2023-07-31T12:19:37;21.50;99.90
41939;DHT22;23057;48.554;14.454;2023-07-31T12:22:15;21.80;99.90
41939;DHT22;23057;48.554;14.454;2023-07-31T12:24:46;21.80;99.90
41939;DHT22;23057;48.554;14.454;2023-07-31T12:27:17;21.90;99.90
41939;DHT22;23057;48.554;14.454;2023-07-31T12:29:49;21.80;99.90
41939;DHT22;23057;48.554;14.454;2023-07-31T12:32:21;21.70;99.90
41939;DHT22;23057;48.554;14.454;2023-07-31T12:34:54;21.70;99.90
41939;DHT22;23057;48.554;14.454;2023-07-31T12:37:25;21.60;99.90
41939;DHT22;23057;48.554;14.454;2023-07-31T12:39:56;22.10;99.90
41939;DHT22;23057;48.554;14.454;2023-07-31T12:42:31;22.20;99.90
41939;DHT22;23057;48.554;14.454;2023-07-31T12:45:02;22.40;99.90
41939;DHT22;23057;48.554;14.454;2023-07-31T12:47:34;22.90;99.90
41939;DHT22;23057;48.554;14.454;2023-07-31T12:50:05;23.30;99.90
41939;DHT22;23057;48.554;14.454;2023-07-31T12:52:38;23.90;99.90
41939;DHT22;23057;48.554;14.454;2023-07-31T12:55:08;24.30;99.90
41939;DHT22;23057;48.554;14.454;2023-07-31T12:57:41;24.30;99.90
41939;DHT22;23057;48.554;14.454;2023-07-31T13:00:14;24.20;99.90
41939;DHT22;23057;48.554;14.454;2023-07-31T13:02:46;24.20;99.90
41939;DHT22;23057;48.554;14.454;2023-07-31T13:05:17;24.30;99.90
41939;DHT22;23057;48.554;14.454;2023-07-31T13:07:50;23.80;99.90
41939;DHT22;23057;48.554;14.454;2023-07-31T13:10:21;23.70;99.90
41939;DHT22;23057;48.554;14.454;2023-07-31T13:12:54;23.80;99.90
41939;DHT22;23057;48.554;14.454;2023-07-31T13:15:25;23.10;99.90
41939;DHT22;23057;48.554;14.454;2023-07-31T13:17:56;23.10;99.90
41939;DHT22;23057;48.554;14.454;2023-07-31T13:20:27;23.20;99.90
41939;DHT22;23057;48.554;14.454;2023-07-31T13:22:58;23.30;99.90
41939;DHT22;23057;48.554;14.454;2023-07-31T13:25:28;23.70;99.90
41939;DHT22;23057;48.554;14.454;2023-07-31T13:27:59;24.00;99.90
41939;DHT22;23057;48.554;14.454;2023-07-31T13:30:30;23.60;99.90
41939;DHT22;23057;48.554;14.454;2023-07-31T13:33:01;23.60;99.90
41939;DHT22;23057;48.554;14.454;2023-07-31T13:35:32;24.10;99.90
41939;DHT22;23057;48.554;14.454;2023-07-31T13:38:03;23.80;99.90
41939;DHT22;23057;48.554;14.454;2023-07-31T13:40:34;23.50;99.90
41939;DHT22;23057;48.554;14.454;2023-07-31T13:43:05;24.00;99.90
41939;DHT22;23057;48.554;14.454;2023-07-31T13:45:35;24.10;99.90
41939;DHT22;23057;48.554;14.454;2023-07-31T13:48:06;24.00;99.90
41939;DHT22;23057;48.554;14.454;2023-07-31T13:50:37;23.80;99.90
41939;DHT22;23057;48.554;14.454;2023-07-31T13:53:08;23.50;99.90
41939;DHT22;23057;48.554;14.454;2023-07-31T13:55:39;23.40;99.90
41939;DHT22;23057;48.554;14.454;2023-07-31T13:58:10;23.70;99.90
41939;DHT22;23057;48.554;14.454;2023-07-31T14:00:40;23.30;99.90
41939;DHT22;23057;48.554;14.454;2023-07-31T14:03:11;23.50;99.90
41939;DHT22;23057;48.554;14.454;2023-07-31T14:05:42;23.40;99.90
41939;DHT22;23057;48.554;14.454;2023-07-31T14:08:13;23.00;99.90
41939;DHT22;23057;48.554;14.454;2023-07-31T14:10:44;23.10;99.90
41939;DHT22;23057;48.554;14.454;2023-07-31T14:13:14;23.30;99.90
41939;DHT22;23057;48.554;14.454;2023-07-31T14:15:45;23.10;99.90
41939;DHT22;23057;48.554;14.454;2023-07-31T14:18:17;23.20;99.90
41939;DHT22;23057;48.554;14.454;2023-07-31T14:20:48;23.50;99.90
41939;DHT22;23057;48.554;14.454;2023-07-31T14:23:19;23.60;99.90
41939;DHT22;23057;48.554;14.454;2023-07-31T14:25:50;23.90;99.90
41939;DHT22;23057;48.554;14.454;2023-07-31T14:28:21;24.10;99.90
41939;DHT22;23057;48.554;14.454;2023-07-31T14:30:52;24.20;99.90
41939;DHT22;23057;48.554;14.454;2023-07-31T14:33:22;23.50;99.90
41939;DHT22;23057;48.554;14.454;2023-07-31T14:35:54;22.70;99.90
41939;DHT22;23057;48.554;14.454;2023-07-31T14:38:24;22.70;99.90
41939;DHT22;23057;48.554;14.454;2023-07-31T14:40:56;22.90;99.90
41939;DHT22;23057;48.554;14.454;2023-07-31T14:43:26;23.10;99.90
41939;DHT22;23057;48.554;14.454;2023-07-31T14:45:57;23.60;99.90
41939;DHT22;23057;48.554;14.454;2023-07-31T14:48:30;23.80;99.90
41939;DHT22;23057;48.554;14.454;2023-07-31T14:51:00;23.80;99.90
41939;DHT22;23057;48.554;14.454;2023-07-31T14:53:31;23.50;99.90
41939;DHT22;23057;48.554;14.454;2023-07-31T14:56:02;23.30;99.90
41939;DHT22;23057;48.554;14.454;2023-07-31T14:58:33;23.10;99.90
41939;DHT22;23057;48.554;14.454;2023-07-31T15:01:04;23.00;99.90
41939;DHT22;23057;48.554;14.454;2023-07-31T15:03:34;23.40;99.90
41939;DHT22;23057;48.554;14.454;2023-07-31T15:06:05;23.20;99.90
41939;DHT22;23057;48.554;14.454;2023-07-31T15:08:38;23.00;99.90
41939;DHT22;23057;48.554;14.454;2023-07-31T15:11:09;23.40;99.90
41939;DHT22;23057;48.554;14.454;2023-07-31T15:13:40;23.40;99.90
41939;DHT22;23057;48.554;14.454;2023-07-31T15:16:12;23.30;99.90
41939;DHT22;23057;48.554;14.454;2023-07-31T15:18:43;22.90;99.90
41939;DHT22;23057;48.554;14.454;2023-07-31T15:21:14;22.80;99.90
41939;DHT22;23057;48.554;14.454;2023-07-31T15:23:44;22.40;99.90
41939;DHT22;23057;48.554;14.454;2023-07-31T15:26:15;22.20;99.90
41939;DHT22;23057;48.554;14.454;2023-07-31T15:28:55;22.20;99.90
41939;DHT22;23057;48.554;14.454;2023-07-31T15:31:32;22.10;99.90
41939;DHT22;23057;48.554;14.454;2023-07-31T15:34:03;21.90;99.90
41939;DHT22;23057;48.554;14.454;2023-07-31T15:36:34;22.20;99.90
41939;DHT22;23057;48.554;14.454;2023-07-31T15:39:05;22.50;99.90
41939;DHT22;23057;48.554;14.454;2023-07-31T15:41:40;22.40;99.90
41939;DHT22;23057;48.554;14.454;2023-07-31T15:44:12;22.70;99.90
41939;DHT22;23057;48.554;14.454;2023-07-31T15:46:43;22.80;99.90
41939;DHT22;23057;48.554;14.454;2023-07-31T15:49:13;22.90;99.90
41939;DHT22;23057;48.554;14.454;2023-07-31T15:51:44;23.00;99.90